sensor_id;sensor_type;location;lat;lon;timestamp;P1;durP1;ratioP1;P2;durP2;ratioP2
10458;SDS011;5277;48.722;8.736;2023-03-22T00:01:47;6.00;;;4.05;;
10458;SDS011;5277;48.722;8.736;2023-03-22T00:04:20;3.72;;;2.90;;
10458;SDS011;5277;48.722;8.736;2023-03-22T00:06:48;7.53;;;3.25;;
10458;SDS011;5277;48.722;8.736;2023-03-22T00:09:16;6.15;;;4.28;;
10458;SDS011;5277;48.722;8.736;2023-03-22T00:11:45;5.65;;;4.00;;
10458;SDS011;5277;48.722;8.736;2023-03-22T00:14:18;7.50;;;4.25;;
10458;SDS011;5277;48.722;8.736;2023-03-22T00:16:44;6.40;;;3.78;;
10458;SDS011;5277;48.722;8.736;2023-03-22T00:19:17;5.13;;;2.78;;
10458;SDS011;5277;48.722;8.736;2023-03-22T00:21:45;4.18;;;2.75;;
10458;SDS011;5277;48.722;8.736;2023-03-22T00:24:13;5.82;;;2.67;;
10458;SDS011;5277;48.722;8.736;2023-03-22T00:26:42;7.32;;;3.00;;
10458;SDS011;5277;48.722;8.736;2023-03-22T00:29:10;5.45;;;2.35;;
10458;SDS011;5277;48.722;8.736;2023-03-22T00:31:38;5.15;;;3.33;;
10458;SDS011;5277;48.722;8.736;2023-03-22T00:34:06;5.78;;;2.90;;
10458;SDS011;5277;48.722;8.736;2023-03-22T00:36:54;5.57;;;2.92;;
10458;SDS011;5277;48.722;8.736;2023-03-22T00:39:20;4.55;;;2.85;;
10458;SDS011;5277;48.722;8.736;2023-03-22T00:41:48;4.75;;;3.58;;
10458;SDS011;5277;48.722;8.736;2023-03-22T00:44:17;4.20;;;3.60;;
10458;SDS011;5277;48.722;8.736;2023-03-22T00:46:48;4.10;;;2.60;;
10458;SDS011;5277;48.722;8.736;2023-03-22T00:49:13;3.05;;;2.40;;
10458;SDS011;5277;48.722;8.736;2023-03-22T00:51:42;4.90;;;2.45;;
10458;SDS011;5277;48.722;8.736;2023-03-22T00:54:08;4.03;;;2.57;;
10458;SDS011;5277;48.722;8.736;2023-03-22T00:56:34;6.28;;;2.67;;
10458;SDS011;5277;48.722;8.736;2023-03-22T00:59:02;3.05;;;2.45;;
10458;SDS011;5277;48.722;8.736;2023-03-22T01:01:28;3.75;;;2.25;;
10458;SDS011;5277;48.722;8.736;2023-03-22T01:03:54;6.30;;;2.60;;
10458;SDS011;5277;48.722;8.736;2023-03-22T01:06:23;3.97;;;2.37;;
10458;SDS011;5277;48.722;8.736;2023-03-22T01:08:51;6.78;;;2.45;;
10458;SDS011;5277;48.722;8.736;2023-03-22T01:11:19;4.53;;;2.53;;
10458;SDS011;5277;48.722;8.736;2023-03-22T01:13:46;6.00;;;2.57;;
10458;SDS011;5277;48.722;8.736;2023-03-22T01:16:11;4.03;;;2.37;;
10458;SDS011;5277;48.722;8.736;2023-03-22T01:18:40;3.37;;;2.40;;
10458;SDS011;5277;48.722;8.736;2023-03-22T01:21:08;2.90;;;2.10;;
10458;SDS011;5277;48.722;8.736;2023-03-22T01:23:34;5.07;;;2.42;;
10458;SDS011;5277;48.722;8.736;2023-03-22T01:26:00;4.47;;;2.70;;
10458;SDS011;5277;48.722;8.736;2023-03-22T01:28:26;6.73;;;2.57;;
10458;SDS011;5277;48.722;8.736;2023-03-22T01:30:53;4.73;;;2.50;;
10458;SDS011;5277;48.722;8.736;2023-03-22T01:33:19;4.93;;;2.80;;
10458;SDS011;5277;48.722;8.736;2023-03-22T01:35:44;7.13;;;2.20;;
10458;SDS011;5277;48.722;8.736;2023-03-22T01:38:10;3.97;;;2.10;;
10458;SDS011;5277;48.722;8.736;2023-03-22T01:40:36;6.60;;;2.80;;
10458;SDS011;5277;48.722;8.736;2023-03-22T01:43:02;5.70;;;2.40;;
10458;SDS011;5277;48.722;8.736;2023-03-22T01:45:41;6.93;;;2.57;;
10458;SDS011;5277;48.722;8.736;2023-03-22T01:51:08;3.75;;;2.03;;
10458;SDS011;5277;48.722;8.736;2023-03-22T01:53:40;7.67;;;2.57;;
10458;SDS011;5277;48.722;8.736;2023-03-22T01:56:09;3.63;;;2.20;;
10458;SDS011;5277;48.722;8.736;2023-03-22T01:58:36;3.80;;;2.10;;
10458;SDS011;5277;48.722;8.736;2023-03-22T02:01:04;7.00;;;2.97;;
10458;SDS011;5277;48.722;8.736;2023-03-22T02:03:35;5.40;;;2.43;;
10458;SDS011;5277;48.722;8.736;2023-03-22T02:06:02;8.37;;;2.57;;
10458;SDS011;5277;48.722;8.736;2023-03-22T02:08:30;9.80;;;2.63;;
10458;SDS011;5277;48.722;8.736;2023-03-22T02:10:58;2.93;;;2.17;;
10458;SDS011;5277;48.722;8.736;2023-03-22T02:28:51;2.90;;;1.90;;
10458;SDS011;5277;48.722;8.736;2023-03-22T02:33:58;4.40;;;2.37;;
10458;SDS011;5277;48.722;8.736;2023-03-22T02:36:34;3.37;;;2.50;;
10458;SDS011;5277;48.722;8.736;2023-03-22T02:39:45;6.90;;;2.10;;
10458;SDS011;5277;48.722;8.736;2023-03-22T02:42:54;5.63;;;2.40;;
10458;SDS011;5277;48.722;8.736;2023-03-22T02:45:35;4.00;;;2.37;;
10458;SDS011;5277;48.722;8.736;2023-03-22T02:48:08;5.17;;;2.40;;
10458;SDS011;5277;48.722;8.736;2023-03-22T02:53:16;5.93;;;2.37;;
10458;SDS011;5277;48.722;8.736;2023-03-22T02:55:50;4.77;;;2.30;;
10458;SDS011;5277;48.722;8.736;2023-03-22T02:58:57;3.53;;;2.10;;
10458;SDS011;5277;48.722;8.736;2023-03-22T03:01:27;3.20;;;1.90;;
10458;SDS011;5277;48.722;8.736;2023-03-22T03:04:00;2.73;;;2.00;;
10458;SDS011;5277;48.722;8.736;2023-03-22T03:06:29;3.13;;;2.30;;
10458;SDS011;5277;48.722;8.736;2023-03-22T03:08:59;4.60;;;2.50;;
10458;SDS011;5277;48.722;8.736;2023-03-22T03:11:28;3.27;;;2.30;;
10458;SDS011;5277;48.722;8.736;2023-03-22T03:13:55;3.57;;;2.10;;
10458;SDS011;5277;48.722;8.736;2023-03-22T03:16:21;5.03;;;2.30;;
10458;SDS011;5277;48.722;8.736;2023-03-22T03:21:40;4.83;;;2.33;;
10458;SDS011;5277;48.722;8.736;2023-03-22T03:27:13;3.77;;;2.20;;
10458;SDS011;5277;48.722;8.736;2023-03-22T03:29:47;2.67;;;2.17;;
10458;SDS011;5277;48.722;8.736;2023-03-22T03:32:27;5.27;;;2.10;;
10458;SDS011;5277;48.722;8.736;2023-03-22T03:35:33;3.33;;;2.30;;
10458;SDS011;5277;48.722;8.736;2023-03-22T03:37:58;2.90;;;2.10;;
10458;SDS011;5277;48.722;8.736;2023-03-22T03:40:33;6.80;;;2.20;;
10458;SDS011;5277;48.722;8.736;2023-03-22T03:43:05;3.73;;;2.20;;
10458;SDS011;5277;48.722;8.736;2023-03-22T03:45:33;4.10;;;2.07;;
10458;SDS011;5277;48.722;8.736;2023-03-22T03:48:01;3.27;;;2.03;;
10458;SDS011;5277;48.722;8.736;2023-03-22T03:50:49;4.63;;;2.30;;
10458;SDS011;5277;48.722;8.736;2023-03-22T03:53:18;3.47;;;2.30;;
10458;SDS011;5277;48.722;8.736;2023-03-22T03:55:43;4.30;;;2.00;;
10458;SDS011;5277;48.722;8.736;2023-03-22T03:58:09;2.77;;;2.10;;
10458;SDS011;5277;48.722;8.736;2023-03-22T04:00:37;3.67;;;2.50;;
10458;SDS011;5277;48.722;8.736;2023-03-22T04:03:04;8.07;;;2.50;;
10458;SDS011;5277;48.722;8.736;2023-03-22T04:05:30;4.83;;;1.87;;
10458;SDS011;5277;48.722;8.736;2023-03-22T04:07:56;4.00;;;2.23;;
10458;SDS011;5277;48.722;8.736;2023-03-22T04:10:22;2.80;;;2.20;;
10458;SDS011;5277;48.722;8.736;2023-03-22T04:12:48;2.80;;;2.00;;
10458;SDS011;5277;48.722;8.736;2023-03-22T04:15:13;4.20;;;2.10;;
10458;SDS011;5277;48.722;8.736;2023-03-22T04:17:39;2.77;;;2.30;;
10458;SDS011;5277;48.722;8.736;2023-03-22T04:20:06;6.13;;;2.20;;
10458;SDS011;5277;48.722;8.736;2023-03-22T04:22:34;3.63;;;2.30;;
10458;SDS011;5277;48.722;8.736;2023-03-22T04:25:02;2.47;;;2.10;;
10458;SDS011;5277;48.722;8.736;2023-03-22T04:27:29;2.97;;;1.97;;
10458;SDS011;5277;48.722;8.736;2023-03-22T04:29:54;3.93;;;2.17;;
10458;SDS011;5277;48.722;8.736;2023-03-22T04:32:20;2.80;;;2.20;;
10458;SDS011;5277;48.722;8.736;2023-03-22T04:34:49;3.13;;;2.17;;
10458;SDS011;5277;48.722;8.736;2023-03-22T04:37:16;3.80;;;2.03;;
10458;SDS011;5277;48.722;8.736;2023-03-22T04:39:43;6.93;;;2.00;;
10458;SDS011;5277;48.722;8.736;2023-03-22T04:42:10;4.90;;;2.77;;
10458;SDS011;5277;48.722;8.736;2023-03-22T04:44:35;3.20;;;1.93;;
10458;SDS011;5277;48.722;8.736;2023-03-22T04:47:01;2.97;;;2.17;;
10458;SDS011;5277;48.722;8.736;2023-03-22T04:49:27;5.67;;;2.27;;
10458;SDS011;5277;48.722;8.736;2023-03-22T04:51:54;6.20;;;2.20;;
10458;SDS011;5277;48.722;8.736;2023-03-22T04:54:20;3.07;;;2.13;;
10458;SDS011;5277;48.722;8.736;2023-03-22T04:56:46;3.47;;;2.50;;
10458;SDS011;5277;48.722;8.736;2023-03-22T04:59:11;8.10;;;2.40;;
10458;SDS011;5277;48.722;8.736;2023-03-22T05:01:37;3.23;;;2.20;;
10458;SDS011;5277;48.722;8.736;2023-03-22T05:04:04;3.03;;;2.40;;
10458;SDS011;5277;48.722;8.736;2023-03-22T05:06:30;5.27;;;2.70;;
10458;SDS011;5277;48.722;8.736;2023-03-22T05:08:57;2.50;;;2.30;;
10458;SDS011;5277;48.722;8.736;2023-03-22T05:11:24;5.77;;;2.30;;
10458;SDS011;5277;48.722;8.736;2023-03-22T05:13:53;4.60;;;2.47;;
10458;SDS011;5277;48.722;8.736;2023-03-22T05:16:19;4.20;;;2.50;;
10458;SDS011;5277;48.722;8.736;2023-03-22T05:18:45;5.57;;;2.80;;
10458;SDS011;5277;48.722;8.736;2023-03-22T05:21:11;3.87;;;2.57;;
10458;SDS011;5277;48.722;8.736;2023-03-22T05:23:42;8.23;;;2.67;;
10458;SDS011;5277;48.722;8.736;2023-03-22T05:26:08;5.90;;;2.60;;
10458;SDS011;5277;48.722;8.736;2023-03-22T05:28:35;6.57;;;2.63;;
10458;SDS011;5277;48.722;8.736;2023-03-22T05:31:01;5.50;;;2.57;;
10458;SDS011;5277;48.722;8.736;2023-03-22T05:33:27;5.23;;;2.60;;
10458;SDS011;5277;48.722;8.736;2023-03-22T05:35:53;4.07;;;2.63;;
10458;SDS011;5277;48.722;8.736;2023-03-22T05:38:20;4.27;;;2.83;;
10458;SDS011;5277;48.722;8.736;2023-03-22T05:40:47;7.40;;;2.80;;
10458;SDS011;5277;48.722;8.736;2023-03-22T05:43:12;6.53;;;2.90;;
10458;SDS011;5277;48.722;8.736;2023-03-22T05:45:38;3.47;;;2.87;;
10458;SDS011;5277;48.722;8.736;2023-03-22T05:48:04;4.37;;;2.60;;
10458;SDS011;5277;48.722;8.736;2023-03-22T05:50:31;3.47;;;2.20;;
10458;SDS011;5277;48.722;8.736;2023-03-22T05:52:57;4.53;;;2.70;;
10458;SDS011;5277;48.722;8.736;2023-03-22T05:55:22;7.50;;;2.83;;
10458;SDS011;5277;48.722;8.736;2023-03-22T05:57:48;5.80;;;2.97;;
10458;SDS011;5277;48.722;8.736;2023-03-22T06:00:16;5.10;;;2.83;;
10458;SDS011;5277;48.722;8.736;2023-03-22T06:02:43;5.80;;;2.90;;
10458;SDS011;5277;48.722;8.736;2023-03-22T06:05:11;5.93;;;2.80;;
10458;SDS011;5277;48.722;8.736;2023-03-22T06:07:38;7.13;;;3.00;;
10458;SDS011;5277;48.722;8.736;2023-03-22T06:10:05;4.70;;;3.00;;
10458;SDS011;5277;48.722;8.736;2023-03-22T06:12:32;5.60;;;3.20;;
10458;SDS011;5277;48.722;8.736;2023-03-22T06:14:58;3.20;;;2.67;;
10458;SDS011;5277;48.722;8.736;2023-03-22T06:17:23;5.13;;;2.87;;
10458;SDS011;5277;48.722;8.736;2023-03-22T06:19:49;4.43;;;3.07;;
10458;SDS011;5277;48.722;8.736;2023-03-22T06:22:15;4.77;;;2.83;;
10458;SDS011;5277;48.722;8.736;2023-03-22T06:24:41;2.83;;;2.47;;
10458;SDS011;5277;48.722;8.736;2023-03-22T06:27:07;4.33;;;2.60;;
10458;SDS011;5277;48.722;8.736;2023-03-22T06:29:34;9.90;;;2.70;;
10458;SDS011;5277;48.722;8.736;2023-03-22T06:32:00;5.17;;;3.00;;
10458;SDS011;5277;48.722;8.736;2023-03-22T06:34:26;4.57;;;2.80;;
10458;SDS011;5277;48.722;8.736;2023-03-22T06:36:52;9.20;;;5.00;;
10458;SDS011;5277;48.722;8.736;2023-03-22T06:39:18;7.53;;;3.63;;
10458;SDS011;5277;48.722;8.736;2023-03-22T06:41:44;3.57;;;2.73;;
10458;SDS011;5277;48.722;8.736;2023-03-22T06:44:10;5.10;;;2.83;;
10458;SDS011;5277;48.722;8.736;2023-03-22T06:46:36;4.73;;;3.00;;
10458;SDS011;5277;48.722;8.736;2023-03-22T06:49:02;3.90;;;3.10;;
10458;SDS011;5277;48.722;8.736;2023-03-22T06:51:28;9.27;;;3.40;;
10458;SDS011;5277;48.722;8.736;2023-03-22T06:53:54;4.30;;;3.13;;
10458;SDS011;5277;48.722;8.736;2023-03-22T06:56:20;6.47;;;3.13;;
10458;SDS011;5277;48.722;8.736;2023-03-22T06:58:45;6.20;;;3.03;;
10458;SDS011;5277;48.722;8.736;2023-03-22T07:01:11;8.20;;;3.07;;
10458;SDS011;5277;48.722;8.736;2023-03-22T07:03:38;5.60;;;3.20;;
10458;SDS011;5277;48.722;8.736;2023-03-22T07:06:04;5.57;;;3.27;;
10458;SDS011;5277;48.722;8.736;2023-03-22T07:08:34;7.57;;;3.33;;
10458;SDS011;5277;48.722;8.736;2023-03-22T07:11:01;5.00;;;3.43;;
10458;SDS011;5277;48.722;8.736;2023-03-22T07:13:37;5.53;;;3.20;;
10458;SDS011;5277;48.722;8.736;2023-03-22T07:16:05;8.53;;;3.43;;
10458;SDS011;5277;48.722;8.736;2023-03-22T07:18:31;6.57;;;2.87;;
10458;SDS011;5277;48.722;8.736;2023-03-22T07:20:59;4.57;;;3.05;;
10458;SDS011;5277;48.722;8.736;2023-03-22T07:23:30;6.90;;;3.13;;
10458;SDS011;5277;48.722;8.736;2023-03-22T07:26:04;6.85;;;2.70;;
10458;SDS011;5277;48.722;8.736;2023-03-22T07:28:41;6.95;;;2.70;;
10458;SDS011;5277;48.722;8.736;2023-03-22T07:31:09;3.38;;;2.55;;
10458;SDS011;5277;48.722;8.736;2023-03-22T07:33:38;3.80;;;2.58;;
10458;SDS011;5277;48.722;8.736;2023-03-22T07:36:14;4.63;;;2.47;;
10458;SDS011;5277;48.722;8.736;2023-03-22T07:38:39;3.35;;;2.42;;
10458;SDS011;5277;48.722;8.736;2023-03-22T07:41:17;6.30;;;2.60;;
10458;SDS011;5277;48.722;8.736;2023-03-22T07:43:50;5.18;;;2.35;;
10458;SDS011;5277;48.722;8.736;2023-03-22T07:46:21;4.70;;;2.35;;
10458;SDS011;5277;48.722;8.736;2023-03-22T07:48:52;4.70;;;2.38;;
10458;SDS011;5277;48.722;8.736;2023-03-22T07:51:21;3.53;;;2.58;;
10458;SDS011;5277;48.722;8.736;2023-03-22T07:53:55;5.03;;;2.45;;
10458;SDS011;5277;48.722;8.736;2023-03-22T07:56:47;4.57;;;2.70;;
10458;SDS011;5277;48.722;8.736;2023-03-22T07:59:49;4.30;;;2.40;;
10458;SDS011;5277;48.722;8.736;2023-03-22T08:02:17;6.05;;;2.40;;
10458;SDS011;5277;48.722;8.736;2023-03-22T08:04:50;5.93;;;2.30;;
10458;SDS011;5277;48.722;8.736;2023-03-22T08:07:43;2.95;;;2.15;;
10458;SDS011;5277;48.722;8.736;2023-03-22T08:10:29;7.65;;;2.30;;
10458;SDS011;5277;48.722;8.736;2023-03-22T08:13:18;4.40;;;2.17;;
10458;SDS011;5277;48.722;8.736;2023-03-22T08:15:44;3.75;;;2.30;;
10458;SDS011;5277;48.722;8.736;2023-03-22T08:18:33;3.90;;;2.15;;
10458;SDS011;5277;48.722;8.736;2023-03-22T08:21:25;5.32;;;1.90;;
10458;SDS011;5277;48.722;8.736;2023-03-22T08:23:54;4.05;;;2.20;;
10458;SDS011;5277;48.722;8.736;2023-03-22T08:29:53;3.38;;;1.75;;
10458;SDS011;5277;48.722;8.736;2023-03-22T08:32:52;2.47;;;1.60;;
10458;SDS011;5277;48.722;8.736;2023-03-22T08:35:25;6.18;;;1.63;;
10458;SDS011;5277;48.722;8.736;2023-03-22T08:37:56;2.28;;;1.55;;
10458;SDS011;5277;48.722;8.736;2023-03-22T08:40:24;4.80;;;1.60;;
10458;SDS011;5277;48.722;8.736;2023-03-22T08:42:55;3.63;;;1.65;;
10458;SDS011;5277;48.722;8.736;2023-03-22T08:45:47;3.42;;;1.15;;
10458;SDS011;5277;48.722;8.736;2023-03-22T08:48:15;3.25;;;1.50;;
10458;SDS011;5277;48.722;8.736;2023-03-22T08:50:46;2.70;;;1.42;;
10458;SDS011;5277;48.722;8.736;2023-03-22T08:53:18;2.13;;;1.48;;
10458;SDS011;5277;48.722;8.736;2023-03-22T08:55:58;2.33;;;1.20;;
10458;SDS011;5277;48.722;8.736;2023-03-22T08:58:32;1.73;;;1.25;;
10458;SDS011;5277;48.722;8.736;2023-03-22T09:01:01;4.07;;;1.40;;
10458;SDS011;5277;48.722;8.736;2023-03-22T09:03:41;1.63;;;1.17;;
10458;SDS011;5277;48.722;8.736;2023-03-22T09:06:13;3.28;;;1.20;;
10458;SDS011;5277;48.722;8.736;2023-03-22T09:08:55;3.10;;;1.20;;
10458;SDS011;5277;48.722;8.736;2023-03-22T09:11:23;1.60;;;1.20;;
10458;SDS011;5277;48.722;8.736;2023-03-22T09:13:59;2.15;;;1.35;;
10458;SDS011;5277;48.722;8.736;2023-03-22T09:16:53;2.95;;;1.10;;
10458;SDS011;5277;48.722;8.736;2023-03-22T09:26:03;1.95;;;1.20;;
10458;SDS011;5277;48.722;8.736;2023-03-22T09:29:29;3.88;;;1.15;;
10458;SDS011;5277;48.722;8.736;2023-03-22T09:32:54;1.00;;;0.70;;
10458;SDS011;5277;48.722;8.736;2023-03-22T09:39:34;1.75;;;0.80;;
10458;SDS011;5277;48.722;8.736;2023-03-22T09:42:03;1.45;;;0.90;;
10458;SDS011;5277;48.722;8.736;2023-03-22T09:44:51;0.77;;;0.60;;
10458;SDS011;5277;48.722;8.736;2023-03-22T09:48:04;1.20;;;0.80;;
10458;SDS011;5277;48.722;8.736;2023-03-22T09:50:54;1.25;;;0.65;;
10458;SDS011;5277;48.722;8.736;2023-03-22T09:53:35;1.20;;;0.70;;
10458;SDS011;5277;48.722;8.736;2023-03-22T09:56:24;0.85;;;0.70;;
10458;SDS011;5277;48.722;8.736;2023-03-22T10:02:37;1.38;;;0.70;;
10458;SDS011;5277;48.722;8.736;2023-03-22T10:12:10;1.60;;;0.90;;
10458;SDS011;5277;48.722;8.736;2023-03-22T10:15:13;2.15;;;0.85;;
10458;SDS011;5277;48.722;8.736;2023-03-22T10:24:39;2.72;;;0.80;;
10458;SDS011;5277;48.722;8.736;2023-03-22T10:27:18;2.40;;;0.70;;
10458;SDS011;5277;48.722;8.736;2023-03-22T10:36:20;1.00;;;0.88;;
10458;SDS011;5277;48.722;8.736;2023-03-22T10:38:53;1.25;;;0.80;;
10458;SDS011;5277;48.722;8.736;2023-03-22T10:41:26;1.17;;;0.77;;
10458;SDS011;5277;48.722;8.736;2023-03-22T10:50:38;0.80;;;0.70;;
10458;SDS011;5277;48.722;8.736;2023-03-22T10:56:55;1.23;;;0.80;;
10458;SDS011;5277;48.722;8.736;2023-03-22T11:02:28;0.90;;;0.70;;
10458;SDS011;5277;48.722;8.736;2023-03-22T11:05:37;1.00;;;0.90;;
10458;SDS011;5277;48.722;8.736;2023-03-22T11:08:26;1.17;;;0.60;;
10458;SDS011;5277;48.722;8.736;2023-03-22T11:11:12;4.88;;;0.90;;
10458;SDS011;5277;48.722;8.736;2023-03-22T11:20:42;1.60;;;0.82;;
10458;SDS011;5277;48.722;8.736;2023-03-22T11:30:34;0.95;;;0.75;;
10458;SDS011;5277;48.722;8.736;2023-03-22T11:37:18;3.25;;;0.88;;
10458;SDS011;5277;48.722;8.736;2023-03-22T11:44:20;0.75;;;0.73;;
10458;SDS011;5277;48.722;8.736;2023-03-22T11:47:32;0.98;;;0.70;;
10458;SDS011;5277;48.722;8.736;2023-03-22T11:50:29;0.80;;;0.70;;
10458;SDS011;5277;48.722;8.736;2023-03-22T12:03:50;1.70;;;0.70;;
10458;SDS011;5277;48.722;8.736;2023-03-22T12:06:59;1.83;;;0.90;;
10458;SDS011;5277;48.722;8.736;2023-03-22T12:15:53;1.52;;;0.90;;
10458;SDS011;5277;48.722;8.736;2023-03-22T12:34:37;1.02;;;0.73;;
10458;SDS011;5277;48.722;8.736;2023-03-22T12:37:56;1.40;;;0.70;;
10458;SDS011;5277;48.722;8.736;2023-03-22T12:47:38;2.75;;;1.10;;
10458;SDS011;5277;48.722;8.736;2023-03-22T12:50:33;1.30;;;0.95;;
10458;SDS011;5277;48.722;8.736;2023-03-22T12:53:11;1.23;;;0.93;;
10458;SDS011;5277;48.722;8.736;2023-03-22T12:55:48;1.33;;;0.70;;
10458;SDS011;5277;48.722;8.736;2023-03-22T13:21:30;0.82;;;0.70;;
10458;SDS011;5277;48.722;8.736;2023-03-22T13:31:28;1.73;;;1.00;;
10458;SDS011;5277;48.722;8.736;2023-03-22T13:34:19;1.30;;;0.90;;
10458;SDS011;5277;48.722;8.736;2023-03-22T13:40:11;2.05;;;1.13;;
10458;SDS011;5277;48.722;8.736;2023-03-22T13:42:51;2.55;;;0.80;;
10458;SDS011;5277;48.722;8.736;2023-03-22T13:45:55;1.42;;;0.80;;
10458;SDS011;5277;48.722;8.736;2023-03-22T13:48:40;1.50;;;0.80;;
10458;SDS011;5277;48.722;8.736;2023-03-22T13:54:40;1.38;;;0.82;;
10458;SDS011;5277;48.722;8.736;2023-03-22T14:13:39;3.55;;;1.05;;
10458;SDS011;5277;48.722;8.736;2023-03-22T14:16:28;1.05;;;0.93;;
10458;SDS011;5277;48.722;8.736;2023-03-22T14:29:39;1.25;;;0.88;;
10458;SDS011;5277;48.722;8.736;2023-03-22T14:32:27;2.53;;;0.90;;
10458;SDS011;5277;48.722;8.736;2023-03-22T14:35:05;1.25;;;0.90;;
10458;SDS011;5277;48.722;8.736;2023-03-22T14:38:18;1.25;;;0.80;;
10458;SDS011;5277;48.722;8.736;2023-03-22T14:44:02;0.93;;;0.82;;
10458;SDS011;5277;48.722;8.736;2023-03-22T14:46:32;1.60;;;1.00;;
10458;SDS011;5277;48.722;8.736;2023-03-22T14:49:23;1.20;;;1.00;;
10458;SDS011;5277;48.722;8.736;2023-03-22T14:52:08;2.05;;;1.50;;
10458;SDS011;5277;48.722;8.736;2023-03-22T14:59:16;3.30;;;1.10;;
10458;SDS011;5277;48.722;8.736;2023-03-22T15:02:02;1.95;;;1.00;;
10458;SDS011;5277;48.722;8.736;2023-03-22T15:05:23;1.95;;;1.10;;
10458;SDS011;5277;48.722;8.736;2023-03-22T15:11:20;3.13;;;1.27;;
10458;SDS011;5277;48.722;8.736;2023-03-22T15:14:01;2.13;;;1.08;;
10458;SDS011;5277;48.722;8.736;2023-03-22T15:16:32;1.75;;;1.17;;
10458;SDS011;5277;48.722;8.736;2023-03-22T15:19:13;1.83;;;1.13;;
10458;SDS011;5277;48.722;8.736;2023-03-22T15:22:04;1.98;;;0.95;;
10458;SDS011;5277;48.722;8.736;2023-03-22T15:31:27;2.85;;;1.20;;
10458;SDS011;5277;48.722;8.736;2023-03-22T15:34:30;1.83;;;1.13;;
10458;SDS011;5277;48.722;8.736;2023-03-22T15:36:59;1.17;;;0.98;;
10458;SDS011;5277;48.722;8.736;2023-03-22T15:39:35;2.70;;;0.98;;
10458;SDS011;5277;48.722;8.736;2023-03-22T15:44:50;2.22;;;0.95;;
10458;SDS011;5277;48.722;8.736;2023-03-22T15:50:41;1.60;;;1.27;;
10458;SDS011;5277;48.722;8.736;2023-03-22T15:53:31;2.72;;;1.15;;
10458;SDS011;5277;48.722;8.736;2023-03-22T15:59:16;1.65;;;1.20;;
10458;SDS011;5277;48.722;8.736;2023-03-22T16:01:57;4.20;;;1.02;;
10458;SDS011;5277;48.722;8.736;2023-03-22T16:05:10;1.10;;;0.98;;
10458;SDS011;5277;48.722;8.736;2023-03-22T16:07:52;1.75;;;0.95;;
10458;SDS011;5277;48.722;8.736;2023-03-22T16:10:38;2.17;;;1.00;;
10458;SDS011;5277;48.722;8.736;2023-03-22T16:16:48;2.97;;;1.20;;
10458;SDS011;5277;48.722;8.736;2023-03-22T16:20:00;6.00;;;1.23;;
10458;SDS011;5277;48.722;8.736;2023-03-22T16:22:49;7.97;;;1.45;;
10458;SDS011;5277;48.722;8.736;2023-03-22T16:25:17;4.47;;;1.02;;
10458;SDS011;5277;48.722;8.736;2023-03-22T16:27:47;4.65;;;0.90;;
10458;SDS011;5277;48.722;8.736;2023-03-22T16:30:13;2.72;;;1.17;;
10458;SDS011;5277;48.722;8.736;2023-03-22T16:32:40;2.30;;;1.20;;
10458;SDS011;5277;48.722;8.736;2023-03-22T16:35:19;3.35;;;1.10;;
10458;SDS011;5277;48.722;8.736;2023-03-22T16:37:47;2.88;;;1.27;;
10458;SDS011;5277;48.722;8.736;2023-03-22T16:40:47;2.25;;;1.00;;
10458;SDS011;5277;48.722;8.736;2023-03-22T16:43:09;1.00;;;0.90;;
10458;SDS011;5277;48.722;8.736;2023-03-22T16:45:35;5.47;;;0.98;;
10458;SDS011;5277;48.722;8.736;2023-03-22T16:48:00;2.65;;;1.00;;
10458;SDS011;5277;48.722;8.736;2023-03-22T16:50:27;1.92;;;0.98;;
10458;SDS011;5277;48.722;8.736;2023-03-22T16:52:57;2.83;;;1.10;;
10458;SDS011;5277;48.722;8.736;2023-03-22T16:55:27;3.85;;;1.30;;
10458;SDS011;5277;48.722;8.736;2023-03-22T16:57:55;1.85;;;1.27;;
10458;SDS011;5277;48.722;8.736;2023-03-22T17:00:21;2.80;;;1.13;;
10458;SDS011;5277;48.722;8.736;2023-03-22T17:02:49;4.18;;;1.33;;
10458;SDS011;5277;48.722;8.736;2023-03-22T17:05:17;4.32;;;1.50;;
10458;SDS011;5277;48.722;8.736;2023-03-22T17:07:45;3.28;;;1.52;;
10458;SDS011;5277;48.722;8.736;2023-03-22T17:10:11;2.85;;;1.10;;
10458;SDS011;5277;48.722;8.736;2023-03-22T17:12:37;1.95;;;1.30;;
10458;SDS011;5277;48.722;8.736;2023-03-22T17:18:00;2.40;;;1.23;;
10458;SDS011;5277;48.722;8.736;2023-03-22T17:20:27;3.92;;;1.73;;
10458;SDS011;5277;48.722;8.736;2023-03-22T17:22:54;4.30;;;1.40;;
10458;SDS011;5277;48.722;8.736;2023-03-22T17:25:23;1.50;;;1.20;;
10458;SDS011;5277;48.722;8.736;2023-03-22T17:27:51;5.60;;;1.40;;
10458;SDS011;5277;48.722;8.736;2023-03-22T17:30:17;3.70;;;1.50;;
10458;SDS011;5277;48.722;8.736;2023-03-22T17:32:42;5.15;;;1.55;;
10458;SDS011;5277;48.722;8.736;2023-03-22T17:35:10;3.10;;;1.40;;
10458;SDS011;5277;48.722;8.736;2023-03-22T17:37:37;2.47;;;1.42;;
10458;SDS011;5277;48.722;8.736;2023-03-22T17:40:04;5.22;;;1.73;;
10458;SDS011;5277;48.722;8.736;2023-03-22T17:42:31;5.63;;;2.40;;
10458;SDS011;5277;48.722;8.736;2023-03-22T17:44:57;10.88;;;2.72;;
10458;SDS011;5277;48.722;8.736;2023-03-22T17:47:22;4.13;;;2.00;;
10458;SDS011;5277;48.722;8.736;2023-03-22T17:49:48;1.98;;;1.30;;
10458;SDS011;5277;48.722;8.736;2023-03-22T17:52:14;3.28;;;1.60;;
10458;SDS011;5277;48.722;8.736;2023-03-22T17:54:40;2.67;;;1.27;;
10458;SDS011;5277;48.722;8.736;2023-03-22T17:57:07;2.72;;;1.67;;
10458;SDS011;5277;48.722;8.736;2023-03-22T17:59:32;9.63;;;3.65;;
10458;SDS011;5277;48.722;8.736;2023-03-22T18:01:59;4.20;;;2.15;;
10458;SDS011;5277;48.722;8.736;2023-03-22T18:04:25;15.50;;;6.15;;
10458;SDS011;5277;48.722;8.736;2023-03-22T18:06:52;16.08;;;6.30;;
10458;SDS011;5277;48.722;8.736;2023-03-22T18:09:17;21.75;;;7.32;;
10458;SDS011;5277;48.722;8.736;2023-03-22T18:11:44;15.80;;;7.35;;
10458;SDS011;5277;48.722;8.736;2023-03-22T18:14:10;16.45;;;7.68;;
10458;SDS011;5277;48.722;8.736;2023-03-22T18:16:36;9.88;;;5.13;;
10458;SDS011;5277;48.722;8.736;2023-03-22T18:19:02;4.40;;;2.85;;
10458;SDS011;5277;48.722;8.736;2023-03-22T18:21:31;3.50;;;1.90;;
10458;SDS011;5277;48.722;8.736;2023-03-22T18:23:59;4.75;;;1.80;;
10458;SDS011;5277;48.722;8.736;2023-03-22T18:26:25;4.70;;;1.85;;
10458;SDS011;5277;48.722;8.736;2023-03-22T18:28:52;6.90;;;1.90;;
10458;SDS011;5277;48.722;8.736;2023-03-22T18:31:18;2.60;;;1.58;;
10458;SDS011;5277;48.722;8.736;2023-03-22T18:33:45;3.63;;;1.70;;
10458;SDS011;5277;48.722;8.736;2023-03-22T18:36:11;3.75;;;1.40;;
10458;SDS011;5277;48.722;8.736;2023-03-22T18:38:37;8.02;;;2.45;;
10458;SDS011;5277;48.722;8.736;2023-03-22T18:41:08;10.43;;;2.50;;
10458;SDS011;5277;48.722;8.736;2023-03-22T18:43:37;3.55;;;2.15;;
10458;SDS011;5277;48.722;8.736;2023-03-22T18:46:08;6.03;;;2.60;;
10458;SDS011;5277;48.722;8.736;2023-03-22T18:48:35;8.05;;;4.20;;
10458;SDS011;5277;48.722;8.736;2023-03-22T18:51:01;8.82;;;3.63;;
10458;SDS011;5277;48.722;8.736;2023-03-22T18:53:28;7.95;;;2.10;;
10458;SDS011;5277;48.722;8.736;2023-03-22T18:55:54;8.65;;;2.22;;
10458;SDS011;5277;48.722;8.736;2023-03-22T18:58:20;7.53;;;4.32;;
10458;SDS011;5277;48.722;8.736;2023-03-22T19:00:45;3.85;;;2.30;;
10458;SDS011;5277;48.722;8.736;2023-03-22T19:03:11;6.93;;;2.70;;
10458;SDS011;5277;48.722;8.736;2023-03-22T19:05:37;10.57;;;4.28;;
10458;SDS011;5277;48.722;8.736;2023-03-22T19:08:03;8.50;;;4.35;;
10458;SDS011;5277;48.722;8.736;2023-03-22T19:10:30;11.52;;;4.80;;
10458;SDS011;5277;48.722;8.736;2023-03-22T19:12:55;11.13;;;4.32;;
10458;SDS011;5277;48.722;8.736;2023-03-22T19:15:21;7.13;;;3.53;;
10458;SDS011;5277;48.722;8.736;2023-03-22T19:17:47;7.97;;;3.83;;
10458;SDS011;5277;48.722;8.736;2023-03-22T19:20:12;12.07;;;3.90;;
10458;SDS011;5277;48.722;8.736;2023-03-22T19:22:38;4.25;;;2.42;;
10458;SDS011;5277;48.722;8.736;2023-03-22T19:25:04;10.27;;;3.80;;
10458;SDS011;5277;48.722;8.736;2023-03-22T19:27:30;8.68;;;4.57;;
10458;SDS011;5277;48.722;8.736;2023-03-22T19:29:56;6.45;;;4.90;;
10458;SDS011;5277;48.722;8.736;2023-03-22T19:32:22;6.15;;;2.85;;
10458;SDS011;5277;48.722;8.736;2023-03-22T19:34:48;6.72;;;2.95;;
10458;SDS011;5277;48.722;8.736;2023-03-22T19:37:14;6.28;;;2.90;;